NKS6969 KRIC-KATL
Flight info
| Callsign | NKS6969 |
|---|---|
| Flight time | 1h 13m |
| Altitude | 38000 |
| Route | KALLI7 READE AIROW FLASK OZZZI1 |
| Aircraft | A20N/M-SDE2E3FGHIRWXY/LB1 |
Departure
| Time | 2026-05-04 23:27 |
|---|---|
| Airport | Richmond International Airport (KRIC) |
Arrival
| Time | 2026-05-05 00:40 |
|---|---|
| Airport | Hartsfield Jackson Atlanta International Airport (KATL) |
| Time | Latitude | Longitude | Altitude | Speed | Heading |
|---|---|---|---|---|---|
| 2026-05-04 23:02 | 37.50892 | -77.32970 | 175 ft | 0 kts | 287° |
| 2026-05-04 23:18 | 37.50893 | -77.32973 | 165 ft | 1 kts | 287° |
| 2026-05-04 23:19 | 37.50889 | -77.32959 | 174 ft | 2 kts | 287° |
| 2026-05-04 23:19 | 37.50884 | -77.32940 | 175 ft | 2 kts | 287° |
| 2026-05-04 23:19 | 37.50875 | -77.32923 | 175 ft | 2 kts | 341° |
| 2026-05-04 23:19 | 37.50868 | -77.32920 | 175 ft | 1 kts | 9° |
| 2026-05-04 23:20 | 37.50872 | -77.32919 | 175 ft | 0 kts | 11° |
| 2026-05-04 23:20 | 37.50891 | -77.32909 | 174 ft | 6 kts | 32° |
| 2026-05-04 23:21 | 37.50944 | -77.32879 | 173 ft | 11 kts | 15° |
| 2026-05-04 23:21 | 37.51031 | -77.32851 | 172 ft | 15 kts | 14° |
| 2026-05-04 23:21 | 37.51136 | -77.32819 | 174 ft | 15 kts | 14° |
| 2026-05-04 23:21 | 37.51244 | -77.32787 | 174 ft | 17 kts | 13° |
| 2026-05-04 23:22 | 37.51359 | -77.32754 | 174 ft | 17 kts | 13° |
| 2026-05-04 23:22 | 37.51478 | -77.32718 | 175 ft | 16 kts | 13° |
| 2026-05-04 23:22 | 37.51566 | -77.32691 | 175 ft | 11 kts | 13° |
| 2026-05-04 23:22 | 37.51630 | -77.32649 | 175 ft | 11 kts | 56° |
| 2026-05-04 23:23 | 37.51639 | -77.32603 | 175 ft | 0 kts | 87° |
| 2026-05-04 23:23 | 37.51640 | -77.32592 | 175 ft | 2 kts | 88° |
| 2026-05-04 23:23 | 37.51639 | -77.32570 | 176 ft | 3 kts | 91° |
| 2026-05-04 23:23 | 37.51639 | -77.32569 | 176 ft | 0 kts | 91° |
| 2026-05-04 23:24 | 37.51638 | -77.32505 | 177 ft | 13 kts | 91° |
| 2026-05-04 23:24 | 37.51630 | -77.32409 | 179 ft | 6 kts | 98° |
| 2026-05-04 23:25 | 37.51629 | -77.32399 | 179 ft | 0 kts | 98° |
| 2026-05-04 23:26 | 37.51629 | -77.32398 | 179 ft | 1 kts | 98° |
| 2026-05-04 23:26 | 37.51621 | -77.32347 | 179 ft | 7 kts | 109° |
| 2026-05-04 23:26 | 37.51596 | -77.32306 | 179 ft | 6 kts | 137° |
| 2026-05-04 23:26 | 37.51556 | -77.32271 | 179 ft | 15 kts | 148° |
| 2026-05-04 23:27 | 37.51225 | -77.32009 | 177 ft | 97 kts | 147° |
| 2026-05-04 23:27 | 37.50405 | -77.31357 | 180 ft | 176 kts | 152° |
| 2026-05-04 23:27 | 37.49273 | -77.30430 | 538 ft | 206 kts | 152° |
| 2026-05-04 23:27 | 37.48040 | -77.29542 | 1549 ft | 198 kts | 168° |
| 2026-05-04 23:28 | 37.46745 | -77.29627 | 2507 ft | 188 kts | 206° |
| 2026-05-04 23:28 | 37.45675 | -77.30680 | 2871 ft | 211 kts | 234° |
| 2026-05-04 23:28 | 37.45185 | -77.32496 | 3336 ft | 230 kts | 265° |
| 2026-05-04 23:28 | 37.45285 | -77.34516 | 4161 ft | 232 kts | 274° |
| 2026-05-04 23:29 | 37.45493 | -77.36514 | 4939 ft | 234 kts | 275° |
| 2026-05-04 23:29 | 37.45707 | -77.38569 | 5437 ft | 239 kts | 275° |
| 2026-05-04 23:29 | 37.45910 | -77.40647 | 5578 ft | 238 kts | 275° |
| 2026-05-04 23:29 | 37.46102 | -77.42721 | 5391 ft | 238 kts | 274° |
| 2026-05-04 23:30 | 37.46286 | -77.44799 | 5502 ft | 241 kts | 274° |
| 2026-05-04 23:30 | 37.46469 | -77.46909 | 6345 ft | 239 kts | 274° |
| 2026-05-04 23:30 | 37.46646 | -77.48979 | 7357 ft | 236 kts | 276° |
| 2026-05-04 23:30 | 37.46821 | -77.51037 | 8247 ft | 238 kts | 277° |
| 2026-05-04 23:31 | 37.46995 | -77.53099 | 9076 ft | 240 kts | 278° |
| 2026-05-04 23:31 | 37.47139 | -77.55202 | 9952 ft | 242 kts | 275° |
| 2026-05-04 23:31 | 37.47073 | -77.57334 | 10704 ft | 246 kts | 269° |
| 2026-05-04 23:31 | 37.46923 | -77.59498 | 11431 ft | 250 kts | 269° |
| 2026-05-04 23:32 | 37.46755 | -77.61663 | 12332 ft | 247 kts | 269° |
| 2026-05-04 23:32 | 37.46564 | -77.63819 | 13148 ft | 250 kts | 266° |
| 2026-05-04 23:32 | 37.46182 | -77.65975 | 13876 ft | 256 kts | 259° |
| 2026-05-04 23:32 | 37.45639 | -77.68144 | 14528 ft | 262 kts | 257° |
| 2026-05-04 23:33 | 37.45040 | -77.70404 | 14826 ft | 284 kts | 256° |
| 2026-05-04 23:33 | 37.44386 | -77.72858 | 15109 ft | 307 kts | 256° |
| 2026-05-04 23:33 | 37.43685 | -77.75479 | 15465 ft | 324 kts | 256° |
| 2026-05-04 23:33 | 37.42951 | -77.78212 | 16065 ft | 333 kts | 255° |
| 2026-05-04 23:34 | 37.42203 | -77.80999 | 16796 ft | 338 kts | 255° |
| 2026-05-04 23:34 | 37.41456 | -77.83783 | 17523 ft | 343 kts | 255° |
| 2026-05-04 23:34 | 37.40679 | -77.86680 | 18257 ft | 347 kts | 254° |
| 2026-05-04 23:34 | 37.39903 | -77.89575 | 18881 ft | 351 kts | 254° |
| 2026-05-04 23:35 | 37.39128 | -77.92463 | 19510 ft | 355 kts | 254° |
| 2026-05-04 23:35 | 37.38327 | -77.95449 | 20159 ft | 358 kts | 254° |
| 2026-05-04 23:35 | 37.37526 | -77.98427 | 20827 ft | 360 kts | 254° |
| 2026-05-04 23:35 | 37.36734 | -78.01376 | 21430 ft | 363 kts | 254° |
| 2026-05-04 23:36 | 37.35918 | -78.04407 | 22022 ft | 367 kts | 254° |
| 2026-05-04 23:36 | 37.35095 | -78.07464 | 22611 ft | 371 kts | 254° |
| 2026-05-04 23:36 | 37.34260 | -78.10562 | 23129 ft | 376 kts | 253° |
| 2026-05-04 23:36 | 37.33416 | -78.13688 | 23642 ft | 380 kts | 253° |
| 2026-05-04 23:37 | 37.32557 | -78.16863 | 24113 ft | 383 kts | 253° |
| 2026-05-04 23:37 | 37.31695 | -78.20046 | 24589 ft | 385 kts | 253° |
| 2026-05-04 23:37 | 37.30827 | -78.23246 | 25047 ft | 388 kts | 253° |
| 2026-05-04 23:37 | 37.29965 | -78.26424 | 25480 ft | 391 kts | 253° |
| 2026-05-04 23:38 | 37.29088 | -78.29678 | 25909 ft | 393 kts | 255° |
| 2026-05-04 23:38 | 37.28398 | -78.33005 | 26329 ft | 394 kts | 262° |
| 2026-05-04 23:38 | 37.28056 | -78.36419 | 26749 ft | 395 kts | 266° |
| 2026-05-04 23:38 | 37.27860 | -78.39875 | 27160 ft | 397 kts | 268° |
| 2026-05-04 23:39 | 37.27733 | -78.43342 | 27560 ft | 399 kts | 269° |
| 2026-05-04 23:39 | 37.27633 | -78.46831 | 27956 ft | 401 kts | 270° |
| 2026-05-04 23:39 | 37.27537 | -78.50309 | 28335 ft | 403 kts | 270° |
| 2026-05-04 23:39 | 37.27432 | -78.53840 | 28697 ft | 406 kts | 269° |
| 2026-05-04 23:40 | 37.27316 | -78.57408 | 29072 ft | 408 kts | 269° |
| 2026-05-04 23:40 | 37.27190 | -78.60986 | 29406 ft | 410 kts | 269° |
| 2026-05-04 23:40 | 37.27059 | -78.64521 | 29734 ft | 412 kts | 269° |
| 2026-05-04 23:40 | 37.26922 | -78.68124 | 30083 ft | 414 kts | 269° |
| 2026-05-04 23:41 | 37.26780 | -78.71737 | 30495 ft | 412 kts | 270° |
| 2026-05-04 23:41 | 37.26639 | -78.75313 | 30978 ft | 409 kts | 270° |
| 2026-05-04 23:41 | 37.26498 | -78.78864 | 31428 ft | 406 kts | 269° |
| 2026-05-04 23:41 | 37.26358 | -78.82397 | 31851 ft | 404 kts | 269° |
| 2026-05-04 23:42 | 37.26218 | -78.85916 | 32256 ft | 402 kts | 269° |
| 2026-05-04 23:42 | 37.26079 | -78.89413 | 32646 ft | 400 kts | 269° |
| 2026-05-04 23:42 | 37.25939 | -78.92901 | 33026 ft | 399 kts | 269° |
| 2026-05-04 23:42 | 37.25799 | -78.96365 | 33401 ft | 397 kts | 269° |
| 2026-05-04 23:43 | 37.25658 | -78.99819 | 33776 ft | 395 kts | 268° |
| 2026-05-04 23:43 | 37.25517 | -79.03258 | 34093 ft | 394 kts | 268° |
| 2026-05-04 23:43 | 37.25377 | -79.06647 | 34322 ft | 394 kts | 268° |
| 2026-05-04 23:43 | 37.25234 | -79.10091 | 34511 ft | 395 kts | 268° |
| 2026-05-04 23:44 | 37.25090 | -79.13532 | 34710 ft | 395 kts | 268° |
| 2026-05-04 23:44 | 37.24944 | -79.16984 | 34919 ft | 396 kts | 268° |
| 2026-05-04 23:44 | 37.24787 | -79.20436 | 35120 ft | 396 kts | 266° |
| 2026-05-04 23:44 | 37.24397 | -79.23861 | 35325 ft | 398 kts | 260° |
| 2026-05-04 23:45 | 37.23776 | -79.27247 | 35523 ft | 398 kts | 258° |
| 2026-05-04 23:45 | 37.23102 | -79.30616 | 35699 ft | 398 kts | 258° |
| 2026-05-04 23:45 | 37.22414 | -79.33972 | 35994 ft | 396 kts | 258° |
| 2026-05-04 23:45 | 37.21725 | -79.37314 | 36243 ft | 395 kts | 258° |
| 2026-05-04 23:46 | 37.21043 | -79.40613 | 36391 ft | 395 kts | 258° |
| 2026-05-04 23:46 | 37.20350 | -79.43956 | 36527 ft | 396 kts | 258° |
| 2026-05-04 23:46 | 37.19653 | -79.47311 | 36671 ft | 397 kts | 258° |
| 2026-05-04 23:46 | 37.18956 | -79.50659 | 36834 ft | 397 kts | 257° |
| 2026-05-04 23:47 | 37.18256 | -79.54016 | 37004 ft | 397 kts | 257° |
| 2026-05-04 23:47 | 37.17557 | -79.57365 | 37173 ft | 397 kts | 257° |
| 2026-05-04 23:47 | 37.16857 | -79.60712 | 37323 ft | 397 kts | 257° |
| 2026-05-04 23:47 | 37.16153 | -79.64074 | 37475 ft | 398 kts | 257° |
| 2026-05-04 23:48 | 37.15451 | -79.67423 | 37616 ft | 398 kts | 257° |
| 2026-05-04 23:48 | 37.14745 | -79.70782 | 37768 ft | 398 kts | 257° |
| 2026-05-04 23:48 | 37.14046 | -79.74101 | 37894 ft | 398 kts | 257° |
| 2026-05-04 23:48 | 37.13338 | -79.77462 | 37956 ft | 399 kts | 257° |
| 2026-05-04 23:49 | 37.11915 | -79.84204 | 37959 ft | 399 kts | 257° |
| 2026-05-04 23:49 | 37.10487 | -79.90941 | 37958 ft | 400 kts | 257° |
| 2026-05-04 23:50 | 37.09057 | -79.97669 | 37956 ft | 400 kts | 257° |
| 2026-05-04 23:50 | 37.07631 | -80.04360 | 37970 ft | 400 kts | 257° |
| 2026-05-04 23:51 | 37.06191 | -80.11096 | 37972 ft | 400 kts | 257° |
| 2026-05-04 23:51 | 37.04750 | -80.17807 | 37983 ft | 398 kts | 257° |
| 2026-05-04 23:52 | 37.03313 | -80.24493 | 37994 ft | 398 kts | 257° |
| 2026-05-04 23:52 | 37.01394 | -80.31007 | 37993 ft | 401 kts | 244° |
| 2026-05-04 23:53 | 36.97965 | -80.36576 | 37994 ft | 408 kts | 230° |
| 2026-05-04 23:53 | 36.94004 | -80.41630 | 37987 ft | 410 kts | 230° |
| 2026-05-04 23:54 | 36.90003 | -80.46711 | 37980 ft | 410 kts | 230° |
| 2026-05-04 23:54 | 36.86011 | -80.51795 | 37970 ft | 410 kts | 230° |
| 2026-05-04 23:55 | 36.82015 | -80.56885 | 37978 ft | 410 kts | 230° |
| 2026-05-04 23:56 | 36.76030 | -80.64496 | 38020 ft | 409 kts | 230° |
| 2026-05-04 23:56 | 36.72068 | -80.69526 | 38027 ft | 409 kts | 230° |
| 2026-05-04 23:57 | 36.68080 | -80.74580 | 38026 ft | 409 kts | 230° |
| 2026-05-04 23:57 | 36.64088 | -80.79632 | 38022 ft | 409 kts | 230° |
| 2026-05-04 23:58 | 36.60090 | -80.84684 | 38003 ft | 409 kts | 230° |
| 2026-05-04 23:58 | 36.56088 | -80.89732 | 37966 ft | 410 kts | 230° |
| 2026-05-04 23:59 | 36.52078 | -80.94782 | 37985 ft | 408 kts | 231° |
| 2026-05-04 23:59 | 36.48084 | -80.99804 | 37991 ft | 408 kts | 231° |
| 2026-05-05 00:00 | 36.44117 | -81.04785 | 38007 ft | 408 kts | 231° |
| 2026-05-05 00:00 | 36.40128 | -81.09785 | 38019 ft | 407 kts | 230° |
| 2026-05-05 00:01 | 36.36135 | -81.14785 | 38030 ft | 408 kts | 230° |
| 2026-05-05 00:01 | 36.32141 | -81.19779 | 38044 ft | 408 kts | 230° |
| 2026-05-05 00:02 | 36.28816 | -81.23935 | 38041 ft | 408 kts | 230° |
| 2026-05-05 00:02 | 36.24835 | -81.28906 | 38040 ft | 408 kts | 231° |
| 2026-05-05 00:03 | 36.20830 | -81.33897 | 38027 ft | 406 kts | 231° |
| 2026-05-05 00:03 | 36.16850 | -81.38855 | 38007 ft | 406 kts | 231° |
| 2026-05-05 00:04 | 36.12854 | -81.43822 | 37988 ft | 407 kts | 230° |
| 2026-05-05 00:04 | 36.08884 | -81.48747 | 37975 ft | 407 kts | 230° |
| 2026-05-05 00:05 | 36.04885 | -81.53702 | 37964 ft | 407 kts | 230° |
| 2026-05-05 00:05 | 36.00876 | -81.58660 | 37964 ft | 407 kts | 230° |
| 2026-05-05 00:06 | 35.96871 | -81.63608 | 37971 ft | 407 kts | 230° |
| 2026-05-05 00:06 | 35.92872 | -81.68538 | 37975 ft | 405 kts | 231° |
| 2026-05-05 00:07 | 35.88885 | -81.73449 | 37971 ft | 404 kts | 231° |
| 2026-05-05 00:07 | 35.84923 | -81.78322 | 38030 ft | 404 kts | 230° |
| 2026-05-05 00:08 | 35.80933 | -81.83223 | 38022 ft | 404 kts | 230° |
| 2026-05-05 00:08 | 35.76923 | -81.88084 | 38014 ft | 405 kts | 230° |
| 2026-05-05 00:09 | 35.72880 | -81.92925 | 38004 ft | 405 kts | 230° |
| 2026-05-05 00:09 | 35.68834 | -81.97764 | 38005 ft | 405 kts | 230° |
| 2026-05-05 00:10 | 35.64819 | -82.02559 | 38007 ft | 405 kts | 230° |
| 2026-05-05 00:10 | 35.60775 | -82.07382 | 38014 ft | 405 kts | 230° |
| 2026-05-05 00:11 | 35.56731 | -82.12200 | 38014 ft | 405 kts | 230° |
| 2026-05-05 00:11 | 35.52678 | -82.17021 | 38013 ft | 405 kts | 230° |
| 2026-05-05 00:12 | 35.48625 | -82.21834 | 38007 ft | 405 kts | 230° |
| 2026-05-05 00:12 | 35.44570 | -82.26643 | 38010 ft | 406 kts | 230° |
| 2026-05-05 00:13 | 35.40579 | -82.31479 | 38004 ft | 404 kts | 231° |
| 2026-05-05 00:13 | 35.36627 | -82.36395 | 37994 ft | 404 kts | 231° |
| 2026-05-05 00:14 | 35.32676 | -82.41305 | 37993 ft | 404 kts | 231° |
| 2026-05-05 00:14 | 35.28715 | -82.46218 | 38008 ft | 406 kts | 231° |
| 2026-05-05 00:15 | 35.24771 | -82.51102 | 38025 ft | 406 kts | 231° |
| 2026-05-05 00:15 | 35.20804 | -82.56006 | 38035 ft | 406 kts | 231° |
| 2026-05-05 00:16 | 35.16831 | -82.60910 | 38026 ft | 406 kts | 230° |
| 2026-05-05 00:16 | 35.12790 | -82.65757 | 38018 ft | 407 kts | 230° |
| 2026-05-05 00:17 | 35.08728 | -82.70578 | 38026 ft | 407 kts | 230° |
| 2026-05-05 00:17 | 35.04695 | -82.75361 | 38027 ft | 407 kts | 230° |
| 2026-05-05 00:18 | 35.00630 | -82.80176 | 38030 ft | 407 kts | 230° |
| 2026-05-05 00:18 | 34.96556 | -82.84994 | 38032 ft | 408 kts | 230° |
| 2026-05-05 00:19 | 34.92467 | -82.89800 | 38020 ft | 408 kts | 229° |
| 2026-05-05 00:19 | 34.88348 | -82.94574 | 38033 ft | 409 kts | 229° |
| 2026-05-05 00:20 | 34.84246 | -82.99320 | 38027 ft | 408 kts | 229° |
| 2026-05-05 00:20 | 34.80124 | -83.04083 | 38034 ft | 409 kts | 229° |
| 2026-05-05 00:21 | 34.75999 | -83.08845 | 38027 ft | 409 kts | 229° |
| 2026-05-05 00:21 | 34.71860 | -83.13614 | 38044 ft | 410 kts | 229° |
| 2026-05-05 00:22 | 34.67714 | -83.18386 | 38049 ft | 410 kts | 229° |
| 2026-05-05 00:22 | 34.65657 | -83.20750 | 37923 ft | 411 kts | 229° |
| 2026-05-05 00:22 | 34.63574 | -83.23145 | 37112 ft | 415 kts | 229° |
| 2026-05-05 00:22 | 34.61459 | -83.25576 | 36170 ft | 420 kts | 228° |
| 2026-05-05 00:23 | 34.59318 | -83.28033 | 35303 ft | 424 kts | 227° |
| 2026-05-05 00:23 | 34.57169 | -83.30496 | 34520 ft | 426 kts | 226° |
| 2026-05-05 00:23 | 34.55013 | -83.32969 | 33735 ft | 426 kts | 226° |
| 2026-05-05 00:23 | 34.52860 | -83.35443 | 32974 ft | 425 kts | 226° |
| 2026-05-05 00:24 | 34.50727 | -83.37893 | 32355 ft | 420 kts | 226° |
| 2026-05-05 00:24 | 34.48612 | -83.40322 | 31719 ft | 416 kts | 226° |
| 2026-05-05 00:24 | 34.46516 | -83.42728 | 31114 ft | 413 kts | 226° |
| 2026-05-05 00:24 | 34.44451 | -83.45100 | 30129 ft | 418 kts | 227° |
| 2026-05-05 00:25 | 34.42319 | -83.47548 | 28829 ft | 426 kts | 226° |
| 2026-05-05 00:25 | 34.40163 | -83.50023 | 27532 ft | 435 kts | 226° |
| 2026-05-05 00:25 | 34.37925 | -83.52586 | 26292 ft | 442 kts | 226° |
| 2026-05-05 00:25 | 34.35679 | -83.55156 | 25107 ft | 447 kts | 226° |
| 2026-05-05 00:26 | 34.33409 | -83.57750 | 23958 ft | 451 kts | 226° |
| 2026-05-05 00:26 | 34.31120 | -83.60363 | 22859 ft | 451 kts | 226° |
| 2026-05-05 00:26 | 34.28838 | -83.62941 | 21881 ft | 446 kts | 224° |
| 2026-05-05 00:26 | 34.26556 | -83.65402 | 20994 ft | 441 kts | 224° |
| 2026-05-05 00:27 | 34.24264 | -83.67839 | 20140 ft | 435 kts | 223° |
| 2026-05-05 00:27 | 34.22005 | -83.70238 | 19287 ft | 429 kts | 223° |
| 2026-05-05 00:27 | 34.19775 | -83.72605 | 18457 ft | 424 kts | 223° |
| 2026-05-05 00:27 | 34.17575 | -83.74941 | 17507 ft | 419 kts | 223° |
| 2026-05-05 00:28 | 34.15392 | -83.77258 | 16530 ft | 415 kts | 223° |
| 2026-05-05 00:28 | 34.13266 | -83.79515 | 15595 ft | 412 kts | 223° |
| 2026-05-05 00:28 | 34.11118 | -83.81793 | 14664 ft | 409 kts | 222° |
| 2026-05-05 00:28 | 34.08993 | -83.84055 | 13834 ft | 404 kts | 222° |
| 2026-05-05 00:29 | 34.06919 | -83.86279 | 13374 ft | 388 kts | 222° |
| 2026-05-05 00:29 | 34.04948 | -83.88394 | 13076 ft | 370 kts | 222° |
| 2026-05-05 00:29 | 34.03091 | -83.90387 | 12816 ft | 354 kts | 222° |
| 2026-05-05 00:29 | 34.01297 | -83.92310 | 12588 ft | 337 kts | 222° |
| 2026-05-05 00:30 | 33.99583 | -83.94147 | 12369 ft | 322 kts | 222° |
| 2026-05-05 00:30 | 33.97840 | -83.95812 | 11715 ft | 322 kts | 211° |
| 2026-05-05 00:30 | 33.95706 | -83.96709 | 10736 ft | 335 kts | 188° |
| 2026-05-05 00:30 | 33.93333 | -83.96788 | 9691 ft | 345 kts | 180° |
| 2026-05-05 00:31 | 33.90905 | -83.96667 | 8594 ft | 353 kts | 179° |
| 2026-05-05 00:31 | 33.88484 | -83.96525 | 8117 ft | 340 kts | 179° |
| 2026-05-05 00:31 | 33.86184 | -83.96399 | 7891 ft | 321 kts | 179° |
| 2026-05-05 00:31 | 33.84039 | -83.96291 | 7661 ft | 305 kts | 179° |
| 2026-05-05 00:32 | 33.81976 | -83.96194 | 7523 ft | 288 kts | 179° |
| 2026-05-05 00:32 | 33.80034 | -83.96107 | 7502 ft | 272 kts | 179° |
| 2026-05-05 00:32 | 33.78147 | -83.96026 | 7507 ft | 271 kts | 179° |
| 2026-05-05 00:32 | 33.76264 | -83.95984 | 7314 ft | 270 kts | 184° |
| 2026-05-05 00:33 | 33.74429 | -83.96416 | 7061 ft | 268 kts | 199° |
| 2026-05-05 00:33 | 33.72687 | -83.97211 | 6825 ft | 267 kts | 202° |
| 2026-05-05 00:33 | 33.70975 | -83.98070 | 6585 ft | 266 kts | 203° |
| 2026-05-05 00:33 | 33.69291 | -83.98923 | 6341 ft | 265 kts | 203° |
| 2026-05-05 00:34 | 33.67599 | -83.99804 | 6088 ft | 264 kts | 207° |
| 2026-05-05 00:34 | 33.66110 | -84.01071 | 5875 ft | 263 kts | 226° |
| 2026-05-05 00:34 | 33.65150 | -84.02928 | 5743 ft | 265 kts | 250° |
| 2026-05-05 00:34 | 33.64855 | -84.05124 | 5624 ft | 268 kts | 265° |
| 2026-05-05 00:35 | 33.64841 | -84.07365 | 5494 ft | 269 kts | 268° |
| 2026-05-05 00:35 | 33.64869 | -84.09611 | 5360 ft | 269 kts | 268° |
| 2026-05-05 00:35 | 33.64896 | -84.11815 | 5242 ft | 257 kts | 268° |
| 2026-05-05 00:35 | 33.64915 | -84.13904 | 5102 ft | 244 kts | 268° |
| 2026-05-05 00:36 | 33.64927 | -84.15894 | 4962 ft | 232 kts | 267° |
| 2026-05-05 00:36 | 33.64939 | -84.17792 | 4765 ft | 223 kts | 267° |
| 2026-05-05 00:36 | 33.64952 | -84.19611 | 4498 ft | 218 kts | 267° |
| 2026-05-05 00:36 | 33.64954 | -84.21389 | 4232 ft | 207 kts | 266° |
| 2026-05-05 00:37 | 33.64954 | -84.23065 | 3898 ft | 195 kts | 266° |
| 2026-05-05 00:37 | 33.64955 | -84.24632 | 3620 ft | 180 kts | 266° |
| 2026-05-05 00:37 | 33.64956 | -84.26071 | 3397 ft | 165 kts | 265° |
| 2026-05-05 00:37 | 33.64955 | -84.27400 | 3192 ft | 156 kts | 265° |
| 2026-05-05 00:38 | 33.64954 | -84.28701 | 3000 ft | 155 kts | 265° |
| 2026-05-05 00:38 | 33.64954 | -84.29987 | 2797 ft | 154 kts | 265° |
| 2026-05-05 00:38 | 33.64953 | -84.31271 | 2594 ft | 154 kts | 265° |
| 2026-05-05 00:38 | 33.64954 | -84.32542 | 2404 ft | 152 kts | 265° |
| 2026-05-05 00:39 | 33.64953 | -84.33816 | 2195 ft | 153 kts | 265° |
| 2026-05-05 00:39 | 33.64953 | -84.35081 | 1995 ft | 153 kts | 265° |
| 2026-05-05 00:39 | 33.64953 | -84.36359 | 1790 ft | 153 kts | 264° |
| 2026-05-05 00:39 | 33.64952 | -84.37205 | 1650 ft | 152 kts | 267° |
| 2026-05-05 00:40 | 33.64954 | -84.38915 | 1375 ft | 154 kts | 267° |
| 2026-05-05 00:40 | 33.64954 | -84.40201 | 1166 ft | 154 kts | 267° |
| 2026-05-05 00:40 | 33.64949 | -84.41462 | 1009 ft | 145 kts | 268° |
| 2026-05-05 00:40 | 33.64951 | -84.42290 | 1010 ft | 49 kts | 270° |
| 2026-05-05 00:41 | 33.64935 | -84.42626 | 1010 ft | 38 kts | 257° |
| 2026-05-05 00:41 | 33.64884 | -84.42774 | 1009 ft | 0 kts | 239° |
| 2026-05-05 00:41 | 33.64883 | -84.42776 | 1009 ft | 1 kts | 239° |
| 2026-05-05 00:41 | 33.64878 | -84.42787 | 1009 ft | 2 kts | 239° |
| 2026-05-05 00:42 | 33.64857 | -84.42830 | 1009 ft | 12 kts | 239° |
| 2026-05-05 00:42 | 33.64808 | -84.42870 | 1009 ft | 8 kts | 194° |
| 2026-05-05 00:42 | 33.64757 | -84.42876 | 1010 ft | 7 kts | 181° |
| 2026-05-05 00:42 | 33.64679 | -84.42871 | 1011 ft | 15 kts | 165° |
| 2026-05-05 00:43 | 33.64574 | -84.42813 | 1010 ft | 18 kts | 153° |
| 2026-05-05 00:43 | 33.64461 | -84.42786 | 1009 ft | 17 kts | 204° |
| 2026-05-05 00:43 | 33.64348 | -84.42806 | 1009 ft | 16 kts | 178° |
| 2026-05-05 00:43 | 33.64272 | -84.42805 | 1009 ft | 1 kts | 185° |
| 2026-05-05 00:44 | 33.64261 | -84.42808 | 1009 ft | 4 kts | 198° |
| 2026-05-05 00:44 | 33.64232 | -84.42850 | 1009 ft | 6 kts | 248° |
| 2026-05-05 00:44 | 33.64228 | -84.42865 | 1009 ft | 1 kts | 256° |
| 2026-05-05 00:44 | 33.64227 | -84.42871 | 1009 ft | 0 kts | 257° |
| 2026-05-05 00:45 | 33.64226 | -84.42878 | 1009 ft | 0 kts | 256° |